createdAt,value
2022-10-19T00:01:36.339Z,1030.767
2022-10-19T00:06:35.735Z,1030.82
2022-10-19T00:11:35.760Z,1030.771
2022-10-19T00:16:36.068Z,1030.696
2022-10-19T00:21:35.066Z,1030.68
2022-10-19T00:26:35.069Z,1030.649
2022-10-19T00:31:34.866Z,1030.637
2022-10-19T00:36:35.982Z,1030.591
2022-10-19T00:41:36.212Z,1030.569
2022-10-19T00:46:36.306Z,1030.557
2022-10-19T00:51:35.576Z,1030.604
2022-10-19T00:56:35.341Z,1030.62
2022-10-19T01:01:35.267Z,1030.647
2022-10-19T01:06:36.195Z,1030.661
2022-10-19T01:11:41.779Z,1030.636
2022-10-19T01:16:42.049Z,1030.609
2022-10-19T01:21:38.310Z,1030.596
2022-10-19T01:26:45.736Z,1030.584
2022-10-19T01:31:38.848Z,1030.582
2022-10-19T01:36:41.289Z,1030.552
2022-10-19T01:41:38.677Z,1030.54
2022-10-19T01:46:37.835Z,1030.452
2022-10-19T01:51:37.434Z,1030.447
2022-10-19T01:56:35.802Z,1030.443
2022-10-19T02:01:38.074Z,1030.389
2022-10-19T02:06:35.064Z,1030.4
2022-10-19T02:11:35.385Z,1030.354
2022-10-19T02:16:38.615Z,1030.312
2022-10-19T02:21:35.343Z,1030.215
2022-10-19T02:26:35.124Z,1030.182
2022-10-19T02:31:34.863Z,1030.287
2022-10-19T02:36:34.932Z,1030.239
2022-10-19T02:41:40.544Z,1030.239
2022-10-19T02:51:36.378Z,1030.092
2022-10-19T02:56:35.171Z,1030.079
2022-10-19T03:01:37.789Z,1030.086
2022-10-19T03:06:34.921Z,1030.033
2022-10-19T03:11:37.744Z,1030.116
2022-10-19T03:16:34.824Z,1030.119
2022-10-19T03:21:34.994Z,1030.096
2022-10-19T03:26:35.052Z,1030.002
2022-10-19T03:31:34.910Z,1029.995
2022-10-19T03:36:37.598Z,1029.954
2022-10-19T03:41:36.864Z,1029.901
2022-10-19T03:46:35.292Z,1029.921
2022-10-19T03:51:37.136Z,1030.004
2022-10-19T03:56:37.860Z,1029.975
2022-10-19T04:01:38.166Z,1029.894
2022-10-19T04:06:35.946Z,1029.848
2022-10-19T04:11:38.777Z,1029.89
2022-10-19T04:16:36.012Z,1029.898
2022-10-19T04:21:37.342Z,1029.895
2022-10-19T04:26:36.256Z,1029.889
2022-10-19T04:31:34.943Z,1029.937
2022-10-19T04:36:35.266Z,1029.976
2022-10-19T04:41:38.202Z,1029.904
2022-10-19T04:46:34.988Z,1029.923
2022-10-19T04:51:35.449Z,1029.896
2022-10-19T04:56:35.930Z,1029.833
2022-10-19T05:01:35.589Z,1029.837
2022-10-19T05:06:35.516Z,1029.807
2022-10-19T05:11:34.867Z,1029.728
2022-10-19T05:16:34.772Z,1029.664
2022-10-19T05:21:34.883Z,1029.731
2022-10-19T05:26:35.088Z,1029.759
2022-10-19T05:31:35.915Z,1029.791
2022-10-19T05:36:36.702Z,1029.761
2022-10-19T05:41:37.145Z,1029.774
2022-10-19T05:46:35.504Z,1029.829
2022-10-19T05:51:35.696Z,1029.832
2022-10-19T05:56:36.131Z,1029.858
2022-10-19T06:01:35.230Z,1029.844
2022-10-19T06:06:35.529Z,1029.818
2022-10-19T06:11:36.286Z,1029.848
2022-10-19T06:16:35.644Z,1029.858
2022-10-19T06:21:35.702Z,1029.85
2022-10-19T06:26:35.617Z,1029.88
2022-10-19T06:31:36.305Z,1029.882
2022-10-19T06:36:35.526Z,1029.995
2022-10-19T06:41:35.250Z,1029.927
2022-10-19T06:46:35.235Z,1029.871
2022-10-19T06:51:36.364Z,1029.843
2022-10-19T06:56:35.000Z,1029.802
2022-10-19T07:01:34.970Z,1029.77
2022-10-19T07:06:34.736Z,1029.676
2022-10-19T07:11:34.981Z,1029.614
2022-10-19T07:16:35.375Z,1029.46
2022-10-19T07:21:40.610Z,1029.496
2022-10-19T07:26:34.655Z,1029.575
2022-10-19T07:31:38.565Z,1029.611
2022-10-19T07:36:35.521Z,1029.729
2022-10-19T07:41:35.009Z,1029.699
2022-10-19T07:46:38.944Z,1029.742
2022-10-19T07:51:40.627Z,1029.732
2022-10-19T07:56:37.826Z,1029.71
2022-10-19T08:01:36.743Z,1029.675
2022-10-19T08:06:39.231Z,1029.667
2022-10-19T08:11:38.137Z,1029.71
2022-10-19T08:16:37.114Z,1029.758
2022-10-19T08:21:35.791Z,1029.737
2022-10-19T08:26:39.288Z,1029.757
2022-10-19T08:31:36.337Z,1029.72
2022-10-19T08:36:35.404Z,1029.637
2022-10-19T08:41:40.161Z,1029.583
2022-10-19T08:46:39.957Z,1029.454
2022-10-19T08:51:41.091Z,1029.49
2022-10-19T08:56:51.128Z,1029.52
2022-10-19T09:01:46.710Z,1029.37
2022-10-19T09:06:42.074Z,1029.392
2022-10-19T09:11:36.549Z,1029.311
2022-10-19T09:16:35.230Z,1029.272
2022-10-19T09:21:46.132Z,1029.218
2022-10-19T09:26:36.481Z,1029.16
2022-10-19T09:31:40.235Z,1029.162
2022-10-19T09:36:50.608Z,1029.122
2022-10-19T09:41:35.346Z,1028.927
2022-10-19T09:46:40.897Z,1028.938
2022-10-19T09:51:42.470Z,1028.959
2022-10-19T09:56:40.560Z,1028.917
2022-10-19T10:01:43.116Z,1028.945
2022-10-19T10:06:35.360Z,1029.076
2022-10-19T10:11:37.806Z,1028.977
2022-10-19T10:16:38.803Z,1029.022
2022-10-19T10:21:36.290Z,1028.964
2022-10-19T10:31:34.800Z,1028.905
2022-10-19T10:36:35.702Z,1028.941
2022-10-19T10:41:35.553Z,1028.863
2022-10-19T10:46:37.986Z,1028.708
2022-10-19T10:51:40.094Z,1028.774
2022-10-19T10:56:40.168Z,1028.712
2022-10-19T11:01:37.675Z,1028.509
2022-10-19T11:06:39.520Z,1028.372
2022-10-19T11:11:38.592Z,1028.211
2022-10-19T11:16:36.809Z,1028.081
2022-10-19T11:21:37.966Z,1027.948
2022-10-19T11:26:43.590Z,1027.944
2022-10-19T11:31:42.691Z,1027.835
2022-10-19T11:36:44.768Z,1027.7
2022-10-19T11:41:41.441Z,1027.569
2022-10-19T11:46:38.823Z,1027.404
2022-10-19T11:51:39.400Z,1027.37
2022-10-19T11:56:51.249Z,1027.246
2022-10-19T12:01:40.871Z,1027.166
2022-10-19T12:06:39.999Z,1027.043
2022-10-19T12:11:42.491Z,1026.883
2022-10-19T12:16:39.464Z,1026.844
2022-10-19T12:21:37.409Z,1026.703
2022-10-19T12:26:38.049Z,1026.602
2022-10-19T12:31:35.412Z,1026.57
2022-10-19T12:36:39.631Z,1026.416
2022-10-19T12:41:39.887Z,1026.373
2022-10-19T12:46:39.607Z,1026.363
2022-10-19T12:51:44.976Z,1026.292
2022-10-19T12:56:34.618Z,1026.128
2022-10-19T13:01:46.056Z,1026.128
2022-10-19T13:06:40.152Z,1025.959
2022-10-19T13:16:57.408Z,1025.904
2022-10-19T13:21:45.919Z,1025.723
2022-10-19T13:26:38.787Z,1025.709
2022-10-19T13:31:37.311Z,1025.638
2022-10-19T13:36:38.476Z,1025.665
2022-10-19T13:41:45.998Z,1025.592
2022-10-19T13:46:43.787Z,1025.613
2022-10-19T13:51:39.212Z,1025.637
2022-10-19T13:56:46.331Z,1025.683
2022-10-19T14:01:41.742Z,1025.581
2022-10-19T14:06:37.352Z,1025.56
2022-10-19T14:11:36.323Z,1025.602
2022-10-19T14:16:34.767Z,1025.557
2022-10-19T14:21:38.645Z,1025.509
2022-10-19T14:26:34.572Z,1025.621
2022-10-19T14:31:37.371Z,1025.579
2022-10-19T14:36:37.982Z,1025.469
2022-10-19T14:41:38.023Z,1025.496
2022-10-19T14:46:35.778Z,1025.391
2022-10-19T14:51:41.500Z,1025.18
2022-10-19T14:56:37.954Z,1025.183
2022-10-19T15:01:36.903Z,1025.108
2022-10-19T15:06:42.096Z,1024.991
2022-10-19T15:11:36.902Z,1024.978
2022-10-19T15:16:44.265Z,1024.858
2022-10-19T15:21:37.149Z,1024.765
2022-10-19T15:26:35.001Z,1024.646
2022-10-19T15:31:34.807Z,1024.643
2022-10-19T15:36:35.614Z,1024.615
2022-10-19T15:41:35.853Z,1024.538
2022-10-19T15:51:42.183Z,1024.327
2022-10-19T15:56:35.832Z,1024.27
2022-10-19T16:01:35.513Z,1024.151
2022-10-19T16:06:35.531Z,1024.103
2022-10-19T16:11:36.297Z,1024.06
2022-10-19T16:16:35.463Z,1023.952
2022-10-19T16:21:36.159Z,1023.885
2022-10-19T16:26:35.675Z,1023.872
2022-10-19T16:31:45.017Z,1023.876
2022-10-19T16:36:34.718Z,1023.847
2022-10-19T16:41:35.964Z,1023.907
2022-10-19T16:46:34.672Z,1023.89
2022-10-19T16:51:40.207Z,1023.864
2022-10-19T16:56:35.295Z,1023.753
2022-10-19T17:01:35.651Z,1023.638
2022-10-19T17:06:37.064Z,1023.502
2022-10-19T17:11:35.731Z,1023.497
2022-10-19T17:16:37.181Z,1023.445
2022-10-19T17:21:37.738Z,1023.49
2022-10-19T17:26:35.479Z,1023.525
2022-10-19T17:31:35.238Z,1023.484
2022-10-19T17:41:34.854Z,1023.365
2022-10-19T17:46:35.772Z,1023.35
2022-10-19T17:51:38.278Z,1023.444
2022-10-19T17:56:34.919Z,1023.5
2022-10-19T18:01:34.882Z,1023.463
2022-10-19T18:06:35.915Z,1023.56
2022-10-19T18:11:36.877Z,1023.561
2022-10-19T18:16:35.850Z,1023.59
2022-10-19T18:21:36.139Z,1023.545
2022-10-19T18:26:35.442Z,1023.683
2022-10-19T18:31:35.101Z,1023.73
2022-10-19T18:36:34.726Z,1023.658
2022-10-19T18:41:35.078Z,1023.451
2022-10-19T18:46:35.312Z,1023.277
2022-10-19T18:51:34.692Z,1023.097
2022-10-19T18:56:36.976Z,1023.089
2022-10-19T19:01:34.570Z,1023.179
2022-10-19T19:06:36.126Z,1023.09
2022-10-19T19:11:37.202Z,1022.847
2022-10-19T19:16:36.693Z,1022.781
2022-10-19T19:21:36.225Z,1022.714
2022-10-19T19:26:36.636Z,1022.714
2022-10-19T19:31:37.103Z,1022.74
2022-10-19T19:36:34.580Z,1022.438
2022-10-19T19:41:36.062Z,1022.181
2022-10-19T19:46:35.641Z,1022.022
2022-10-19T19:51:35.509Z,1021.914
2022-10-19T19:56:36.952Z,1021.773
2022-10-19T20:01:37.047Z,1021.812
2022-10-19T20:06:35.413Z,1021.78
2022-10-19T20:11:38.420Z,1021.744
2022-10-19T20:16:36.376Z,1021.762
2022-10-19T20:21:36.313Z,1021.693
2022-10-19T20:26:34.802Z,1021.572
2022-10-19T20:31:38.776Z,1021.577
2022-10-19T20:36:34.611Z,1021.58
2022-10-19T20:41:51.348Z,1021.421
2022-10-19T20:46:36.825Z,1021.224
2022-10-19T20:51:36.518Z,1021.281
2022-10-19T20:56:35.483Z,1021.278
2022-10-19T21:01:35.736Z,1021.19
2022-10-19T21:06:35.052Z,1021.082
2022-10-19T21:11:39.881Z,1021.094
2022-10-19T21:16:35.206Z,1021.129
2022-10-19T21:21:36.126Z,1021.144
2022-10-19T21:26:35.754Z,1021.231
2022-10-19T21:31:34.590Z,1021.222
2022-10-19T21:36:34.595Z,1021.125
2022-10-19T21:41:34.707Z,1021.085
2022-10-19T21:46:34.490Z,1021.113
2022-10-19T21:51:37.642Z,1021.019
2022-10-19T21:56:34.488Z,1021.003
2022-10-19T22:01:40.203Z,1020.937
2022-10-19T22:06:35.647Z,1020.988
2022-10-19T22:11:37.004Z,1020.943
2022-10-19T22:16:36.479Z,1020.81
2022-10-19T22:21:35.532Z,1020.733
2022-10-19T22:26:35.602Z,1020.54
2022-10-19T22:31:35.614Z,1020.49
2022-10-19T22:36:36.292Z,1020.5
2022-10-19T22:41:57.343Z,1020.354
2022-10-19T22:46:34.574Z,1020.387
2022-10-19T22:51:35.082Z,1020.332
2022-10-19T22:56:34.521Z,1020.279
2022-10-19T23:01:36.684Z,1020.146
2022-10-19T23:06:34.460Z,1020.046
2022-10-19T23:11:34.563Z,1019.925
2022-10-19T23:16:34.576Z,1019.871
2022-10-19T23:21:34.613Z,1019.812
2022-10-19T23:26:35.882Z,1019.689
2022-10-19T23:31:34.843Z,1019.553
2022-10-19T23:36:34.524Z,1019.566
2022-10-19T23:41:34.561Z,1019.448
2022-10-19T23:46:34.572Z,1019.401
2022-10-19T23:51:34.463Z,1019.332
2022-10-19T23:56:35.617Z,1019.37
